sensor_id;sensor_type;location;lat;lon;timestamp;P1;durP1;ratioP1;P2;durP2;ratioP2
4652;SDS011;9900;48.738;9.306;2024-02-16T00:00:14;14.53;;;6.30;;
4652;SDS011;9900;48.738;9.306;2024-02-16T00:02:44;9.27;;;5.90;;
4652;SDS011;9900;48.738;9.306;2024-02-16T00:05:13;17.30;;;6.93;;
4652;SDS011;9900;48.738;9.306;2024-02-16T00:07:42;18.20;;;4.90;;
4652;SDS011;9900;48.738;9.306;2024-02-16T00:10:12;9.33;;;5.07;;
4652;SDS011;9900;48.738;9.306;2024-02-16T00:12:42;6.50;;;5.40;;
4652;SDS011;9900;48.738;9.306;2024-02-16T00:15:11;10.00;;;5.43;;
4652;SDS011;9900;48.738;9.306;2024-02-16T00:17:40;8.27;;;5.27;;
4652;SDS011;9900;48.738;9.306;2024-02-16T00:20:09;10.93;;;4.60;;
4652;SDS011;9900;48.738;9.306;2024-02-16T00:22:40;17.47;;;5.23;;
4652;SDS011;9900;48.738;9.306;2024-02-16T00:25:08;12.00;;;6.10;;
4652;SDS011;9900;48.738;9.306;2024-02-16T00:27:39;5.80;;;5.10;;
4652;SDS011;9900;48.738;9.306;2024-02-16T00:30:08;8.33;;;6.33;;
4652;SDS011;9900;48.738;9.306;2024-02-16T00:32:38;10.10;;;6.07;;
4652;SDS011;9900;48.738;9.306;2024-02-16T00:35:07;16.17;;;7.17;;
4652;SDS011;9900;48.738;9.306;2024-02-16T00:37:38;15.73;;;9.43;;
4652;SDS011;9900;48.738;9.306;2024-02-16T00:40:08;16.10;;;13.67;;
4652;SDS011;9900;48.738;9.306;2024-02-16T00:42:39;27.00;;;19.17;;
4652;SDS011;9900;48.738;9.306;2024-02-16T00:45:08;23.40;;;19.20;;
4652;SDS011;9900;48.738;9.306;2024-02-16T00:47:37;17.20;;;14.37;;
4652;SDS011;9900;48.738;9.306;2024-02-16T00:50:07;15.33;;;10.53;;
4652;SDS011;9900;48.738;9.306;2024-02-16T00:52:37;12.53;;;8.00;;
4652;SDS011;9900;48.738;9.306;2024-02-16T00:55:08;12.97;;;7.67;;
4652;SDS011;9900;48.738;9.306;2024-02-16T00:57:38;12.10;;;6.73;;
4652;SDS011;9900;48.738;9.306;2024-02-16T01:00:07;12.30;;;6.20;;
4652;SDS011;9900;48.738;9.306;2024-02-16T01:02:37;9.63;;;5.70;;
4652;SDS011;9900;48.738;9.306;2024-02-16T01:05:07;10.07;;;5.83;;
4652;SDS011;9900;48.738;9.306;2024-02-16T01:07:38;8.67;;;4.57;;
4652;SDS011;9900;48.738;9.306;2024-02-16T01:10:07;9.20;;;5.50;;
4652;SDS011;9900;48.738;9.306;2024-02-16T01:12:36;10.10;;;4.50;;
4652;SDS011;9900;48.738;9.306;2024-02-16T01:15:07;9.70;;;5.37;;
4652;SDS011;9900;48.738;9.306;2024-02-16T01:17:37;10.00;;;4.50;;
4652;SDS011;9900;48.738;9.306;2024-02-16T01:20:07;6.10;;;4.50;;
4652;SDS011;9900;48.738;9.306;2024-02-16T01:22:39;8.90;;;4.50;;
4652;SDS011;9900;48.738;9.306;2024-02-16T01:25:08;10.70;;;4.30;;
4652;SDS011;9900;48.738;9.306;2024-02-16T01:27:37;6.20;;;4.10;;
4652;SDS011;9900;48.738;9.306;2024-02-16T01:30:10;8.53;;;4.33;;
4652;SDS011;9900;48.738;9.306;2024-02-16T01:32:40;10.27;;;4.93;;
4652;SDS011;9900;48.738;9.306;2024-02-16T01:35:09;8.23;;;4.60;;
4652;SDS011;9900;48.738;9.306;2024-02-16T01:37:39;13.13;;;5.43;;
4652;SDS011;9900;48.738;9.306;2024-02-16T01:40:08;15.83;;;6.10;;
4652;SDS011;9900;48.738;9.306;2024-02-16T01:42:41;11.40;;;8.07;;
4652;SDS011;9900;48.738;9.306;2024-02-16T01:45:12;19.40;;;10.17;;
4652;SDS011;9900;48.738;9.306;2024-02-16T01:47:41;13.67;;;10.60;;
4652;SDS011;9900;48.738;9.306;2024-02-16T01:50:14;14.50;;;10.10;;
4652;SDS011;9900;48.738;9.306;2024-02-16T01:52:44;10.50;;;7.00;;
4652;SDS011;9900;48.738;9.306;2024-02-16T01:55:14;12.67;;;8.27;;
4652;SDS011;9900;48.738;9.306;2024-02-16T01:57:44;12.70;;;7.60;;
4652;SDS011;9900;48.738;9.306;2024-02-16T02:00:15;12.43;;;5.70;;
4652;SDS011;9900;48.738;9.306;2024-02-16T02:02:45;10.97;;;7.00;;
4652;SDS011;9900;48.738;9.306;2024-02-16T02:05:15;11.67;;;6.93;;
4652;SDS011;9900;48.738;9.306;2024-02-16T02:07:44;10.60;;;6.90;;
4652;SDS011;9900;48.738;9.306;2024-02-16T02:10:13;11.03;;;7.40;;
4652;SDS011;9900;48.738;9.306;2024-02-16T02:12:42;10.27;;;6.60;;
4652;SDS011;9900;48.738;9.306;2024-02-16T02:15:12;11.20;;;5.83;;
4652;SDS011;9900;48.738;9.306;2024-02-16T02:17:42;9.47;;;6.00;;
4652;SDS011;9900;48.738;9.306;2024-02-16T02:20:11;12.33;;;6.53;;
4652;SDS011;9900;48.738;9.306;2024-02-16T02:22:42;10.40;;;7.27;;
4652;SDS011;9900;48.738;9.306;2024-02-16T02:25:11;12.30;;;7.50;;
4652;SDS011;9900;48.738;9.306;2024-02-16T02:27:40;19.63;;;7.77;;
4652;SDS011;9900;48.738;9.306;2024-02-16T02:30:10;10.80;;;7.90;;
4652;SDS011;9900;48.738;9.306;2024-02-16T02:32:39;13.47;;;9.20;;
4652;SDS011;9900;48.738;9.306;2024-02-16T02:35:10;20.63;;;9.97;;
4652;SDS011;9900;48.738;9.306;2024-02-16T02:37:43;13.03;;;9.43;;
4652;SDS011;9900;48.738;9.306;2024-02-16T02:40:12;10.57;;;8.63;;
4652;SDS011;9900;48.738;9.306;2024-02-16T02:42:41;15.93;;;9.00;;
4652;SDS011;9900;48.738;9.306;2024-02-16T02:45:11;13.60;;;9.10;;
4652;SDS011;9900;48.738;9.306;2024-02-16T02:47:40;15.17;;;8.87;;
4652;SDS011;9900;48.738;9.306;2024-02-16T02:50:09;11.77;;;8.23;;
4652;SDS011;9900;48.738;9.306;2024-02-16T02:52:38;17.17;;;8.73;;
4652;SDS011;9900;48.738;9.306;2024-02-16T02:55:09;12.57;;;7.90;;
4652;SDS011;9900;48.738;9.306;2024-02-16T02:57:38;8.80;;;6.83;;
4652;SDS011;9900;48.738;9.306;2024-02-16T03:00:08;15.40;;;7.20;;
4652;SDS011;9900;48.738;9.306;2024-02-16T03:02:40;9.13;;;6.70;;
4652;SDS011;9900;48.738;9.306;2024-02-16T03:05:11;10.77;;;7.97;;
4652;SDS011;9900;48.738;9.306;2024-02-16T03:07:40;12.03;;;8.03;;
4652;SDS011;9900;48.738;9.306;2024-02-16T03:10:10;14.67;;;8.83;;
4652;SDS011;9900;48.738;9.306;2024-02-16T03:12:40;10.00;;;7.10;;
4652;SDS011;9900;48.738;9.306;2024-02-16T03:15:09;13.50;;;8.30;;
4652;SDS011;9900;48.738;9.306;2024-02-16T03:17:38;12.33;;;7.70;;
4652;SDS011;9900;48.738;9.306;2024-02-16T03:20:07;13.53;;;6.57;;
4652;SDS011;9900;48.738;9.306;2024-02-16T03:22:38;10.17;;;5.87;;
4652;SDS011;9900;48.738;9.306;2024-02-16T03:25:07;10.10;;;5.87;;
4652;SDS011;9900;48.738;9.306;2024-02-16T03:27:38;12.30;;;6.87;;
4652;SDS011;9900;48.738;9.306;2024-02-16T03:30:07;8.50;;;5.67;;
4652;SDS011;9900;48.738;9.306;2024-02-16T03:32:38;12.70;;;6.20;;
4652;SDS011;9900;48.738;9.306;2024-02-16T03:35:07;9.80;;;6.40;;
4652;SDS011;9900;48.738;9.306;2024-02-16T03:37:36;18.93;;;7.23;;
4652;SDS011;9900;48.738;9.306;2024-02-16T03:40:05;9.47;;;6.27;;
4652;SDS011;9900;48.738;9.306;2024-02-16T03:42:35;35.60;;;8.60;;
4652;SDS011;9900;48.738;9.306;2024-02-16T03:45:06;9.03;;;6.70;;
4652;SDS011;9900;48.738;9.306;2024-02-16T03:47:36;8.50;;;5.87;;
4652;SDS011;9900;48.738;9.306;2024-02-16T03:50:05;10.50;;;5.87;;
4652;SDS011;9900;48.738;9.306;2024-02-16T03:52:35;12.03;;;5.53;;
4652;SDS011;9900;48.738;9.306;2024-02-16T03:55:04;8.50;;;5.50;;
4652;SDS011;9900;48.738;9.306;2024-02-16T03:57:34;10.33;;;6.00;;
4652;SDS011;9900;48.738;9.306;2024-02-16T04:00:05;10.40;;;5.80;;
4652;SDS011;9900;48.738;9.306;2024-02-16T04:02:35;6.27;;;4.90;;
4652;SDS011;9900;48.738;9.306;2024-02-16T04:05:05;6.90;;;4.80;;
4652;SDS011;9900;48.738;9.306;2024-02-16T04:07:35;6.77;;;4.93;;
4652;SDS011;9900;48.738;9.306;2024-02-16T04:10:05;11.80;;;5.77;;
4652;SDS011;9900;48.738;9.306;2024-02-16T04:12:35;10.53;;;5.40;;
4652;SDS011;9900;48.738;9.306;2024-02-16T04:15:06;10.07;;;5.93;;
4652;SDS011;9900;48.738;9.306;2024-02-16T04:17:35;10.53;;;6.17;;
4652;SDS011;9900;48.738;9.306;2024-02-16T04:20:05;8.90;;;5.87;;
4652;SDS011;9900;48.738;9.306;2024-02-16T04:22:35;6.23;;;5.40;;
4652;SDS011;9900;48.738;9.306;2024-02-16T04:25:05;8.40;;;5.50;;
4652;SDS011;9900;48.738;9.306;2024-02-16T04:27:36;11.57;;;5.13;;
4652;SDS011;9900;48.738;9.306;2024-02-16T04:30:07;11.10;;;6.10;;
4652;SDS011;9900;48.738;9.306;2024-02-16T04:32:36;10.23;;;5.57;;
4652;SDS011;9900;48.738;9.306;2024-02-16T04:35:06;7.20;;;5.00;;
4652;SDS011;9900;48.738;9.306;2024-02-16T04:37:39;8.07;;;5.00;;
4652;SDS011;9900;48.738;9.306;2024-02-16T04:40:08;6.37;;;5.13;;
4652;SDS011;9900;48.738;9.306;2024-02-16T04:42:40;13.33;;;4.50;;
4652;SDS011;9900;48.738;9.306;2024-02-16T04:45:12;10.00;;;4.83;;
4652;SDS011;9900;48.738;9.306;2024-02-16T04:47:41;8.93;;;5.10;;
4652;SDS011;9900;48.738;9.306;2024-02-16T04:50:10;6.43;;;4.50;;
4652;SDS011;9900;48.738;9.306;2024-02-16T04:52:39;7.33;;;4.40;;
4652;SDS011;9900;48.738;9.306;2024-02-16T04:55:08;8.83;;;4.93;;
4652;SDS011;9900;48.738;9.306;2024-02-16T04:57:37;6.53;;;5.10;;
4652;SDS011;9900;48.738;9.306;2024-02-16T05:00:07;8.03;;;5.50;;
4652;SDS011;9900;48.738;9.306;2024-02-16T05:02:39;9.83;;;5.40;;
4652;SDS011;9900;48.738;9.306;2024-02-16T05:05:08;6.77;;;4.90;;
4652;SDS011;9900;48.738;9.306;2024-02-16T05:07:37;8.30;;;5.23;;
4652;SDS011;9900;48.738;9.306;2024-02-16T05:10:07;9.47;;;4.77;;
4652;SDS011;9900;48.738;9.306;2024-02-16T05:12:37;6.03;;;4.47;;
4652;SDS011;9900;48.738;9.306;2024-02-16T05:15:06;8.00;;;4.60;;
4652;SDS011;9900;48.738;9.306;2024-02-16T05:17:36;10.10;;;5.10;;
4652;SDS011;9900;48.738;9.306;2024-02-16T05:20:09;7.80;;;5.40;;
4652;SDS011;9900;48.738;9.306;2024-02-16T05:22:43;5.20;;;4.40;;
4652;SDS011;9900;48.738;9.306;2024-02-16T05:25:13;6.17;;;4.57;;
4652;SDS011;9900;48.738;9.306;2024-02-16T05:27:42;7.43;;;4.60;;
4652;SDS011;9900;48.738;9.306;2024-02-16T05:30:12;5.73;;;4.00;;
4652;SDS011;9900;48.738;9.306;2024-02-16T05:32:43;6.27;;;4.37;;
4652;SDS011;9900;48.738;9.306;2024-02-16T05:35:14;14.27;;;5.43;;
4652;SDS011;9900;48.738;9.306;2024-02-16T05:37:44;10.83;;;5.20;;
4652;SDS011;9900;48.738;9.306;2024-02-16T05:40:16;9.17;;;4.87;;
4652;SDS011;9900;48.738;9.306;2024-02-16T05:42:51;8.93;;;4.40;;
4652;SDS011;9900;48.738;9.306;2024-02-16T05:45:21;7.77;;;5.10;;
4652;SDS011;9900;48.738;9.306;2024-02-16T05:47:50;12.40;;;4.57;;
4652;SDS011;9900;48.738;9.306;2024-02-16T05:50:21;8.90;;;5.10;;
4652;SDS011;9900;48.738;9.306;2024-02-16T05:52:51;9.33;;;4.17;;
4652;SDS011;9900;48.738;9.306;2024-02-16T05:55:20;8.03;;;4.67;;
4652;SDS011;9900;48.738;9.306;2024-02-16T05:57:51;9.37;;;4.23;;
4652;SDS011;9900;48.738;9.306;2024-02-16T06:00:20;9.33;;;4.77;;
4652;SDS011;9900;48.738;9.306;2024-02-16T06:02:50;7.25;;;4.50;;
4652;SDS011;9900;48.738;9.306;2024-02-16T06:05:19;4.20;;;3.57;;
4652;SDS011;9900;48.738;9.306;2024-02-16T06:07:50;6.93;;;4.57;;
4652;SDS011;9900;48.738;9.306;2024-02-16T06:10:19;7.83;;;4.27;;
4652;SDS011;9900;48.738;9.306;2024-02-16T06:12:47;6.03;;;3.47;;
4652;SDS011;9900;48.738;9.306;2024-02-16T06:15:17;7.70;;;4.23;;
4652;SDS011;9900;48.738;9.306;2024-02-16T06:17:47;8.23;;;4.17;;
4652;SDS011;9900;48.738;9.306;2024-02-16T06:20:17;6.70;;;4.20;;
4652;SDS011;9900;48.738;9.306;2024-02-16T06:22:47;6.73;;;3.93;;
4652;SDS011;9900;48.738;9.306;2024-02-16T06:25:18;9.73;;;4.47;;
4652;SDS011;9900;48.738;9.306;2024-02-16T06:27:47;12.70;;;5.33;;
4652;SDS011;9900;48.738;9.306;2024-02-16T06:30:17;11.43;;;4.77;;
4652;SDS011;9900;48.738;9.306;2024-02-16T06:32:46;9.00;;;4.67;;
4652;SDS011;9900;48.738;9.306;2024-02-16T06:35:15;7.47;;;4.20;;
4652;SDS011;9900;48.738;9.306;2024-02-16T06:37:45;5.73;;;3.90;;
4652;SDS011;9900;48.738;9.306;2024-02-16T06:40:15;8.77;;;4.20;;
4652;SDS011;9900;48.738;9.306;2024-02-16T06:42:45;9.70;;;4.37;;
4652;SDS011;9900;48.738;9.306;2024-02-16T06:45:14;6.80;;;4.30;;
4652;SDS011;9900;48.738;9.306;2024-02-16T06:47:43;10.17;;;5.10;;
4652;SDS011;9900;48.738;9.306;2024-02-16T06:50:13;6.70;;;5.00;;
4652;SDS011;9900;48.738;9.306;2024-02-16T06:52:42;14.63;;;5.07;;
4652;SDS011;9900;48.738;9.306;2024-02-16T06:55:12;9.80;;;5.30;;
4652;SDS011;9900;48.738;9.306;2024-02-16T06:57:43;12.73;;;4.53;;
4652;SDS011;9900;48.738;9.306;2024-02-16T07:00:12;16.90;;;4.77;;
4652;SDS011;9900;48.738;9.306;2024-02-16T07:02:43;11.93;;;6.07;;
4652;SDS011;9900;48.738;9.306;2024-02-16T07:05:12;8.73;;;5.40;;
4652;SDS011;9900;48.738;9.306;2024-02-16T07:07:43;9.43;;;5.10;;
4652;SDS011;9900;48.738;9.306;2024-02-16T07:10:12;10.80;;;4.57;;
4652;SDS011;9900;48.738;9.306;2024-02-16T07:12:42;11.60;;;4.13;;
4652;SDS011;9900;48.738;9.306;2024-02-16T07:15:13;11.90;;;4.80;;
4652;SDS011;9900;48.738;9.306;2024-02-16T07:17:42;13.43;;;4.13;;
4652;SDS011;9900;48.738;9.306;2024-02-16T07:20:12;5.63;;;4.37;;
4652;SDS011;9900;48.738;9.306;2024-02-16T07:22:42;11.00;;;4.00;;
4652;SDS011;9900;48.738;9.306;2024-02-16T07:25:13;13.13;;;4.87;;
4652;SDS011;9900;48.738;9.306;2024-02-16T07:27:43;12.63;;;5.00;;
4652;SDS011;9900;48.738;9.306;2024-02-16T07:30:12;7.77;;;4.50;;
4652;SDS011;9900;48.738;9.306;2024-02-16T07:32:49;14.67;;;4.77;;
4652;SDS011;9900;48.738;9.306;2024-02-16T07:35:20;11.70;;;4.40;;
4652;SDS011;9900;48.738;9.306;2024-02-16T07:37:51;19.60;;;4.80;;
4652;SDS011;9900;48.738;9.306;2024-02-16T07:40:21;7.60;;;4.30;;
4652;SDS011;9900;48.738;9.306;2024-02-16T07:42:51;18.60;;;5.90;;
4652;SDS011;9900;48.738;9.306;2024-02-16T07:45:20;9.40;;;5.30;;
4652;SDS011;9900;48.738;9.306;2024-02-16T07:47:49;12.37;;;4.70;;
4652;SDS011;9900;48.738;9.306;2024-02-16T07:50:18;18.63;;;5.60;;
4652;SDS011;9900;48.738;9.306;2024-02-16T07:52:47;15.27;;;5.20;;
4652;SDS011;9900;48.738;9.306;2024-02-16T07:55:16;12.90;;;5.00;;
4652;SDS011;9900;48.738;9.306;2024-02-16T07:57:45;14.23;;;5.80;;
4652;SDS011;9900;48.738;9.306;2024-02-16T08:00:16;21.73;;;5.90;;
4652;SDS011;9900;48.738;9.306;2024-02-16T08:02:46;11.17;;;5.40;;
4652;SDS011;9900;48.738;9.306;2024-02-16T08:05:15;13.00;;;6.13;;
4652;SDS011;9900;48.738;9.306;2024-02-16T08:07:46;17.90;;;5.70;;
4652;SDS011;9900;48.738;9.306;2024-02-16T08:10:18;9.27;;;4.73;;
4652;SDS011;9900;48.738;9.306;2024-02-16T08:12:48;13.80;;;5.07;;
4652;SDS011;9900;48.738;9.306;2024-02-16T08:15:19;9.50;;;5.10;;
4652;SDS011;9900;48.738;9.306;2024-02-16T08:17:52;8.53;;;5.50;;
4652;SDS011;9900;48.738;9.306;2024-02-16T08:20:21;12.73;;;5.40;;
4652;SDS011;9900;48.738;9.306;2024-02-16T08:22:50;11.97;;;5.53;;
4652;SDS011;9900;48.738;9.306;2024-02-16T08:25:19;23.07;;;6.87;;
4652;SDS011;9900;48.738;9.306;2024-02-16T08:27:49;16.13;;;8.73;;
4652;SDS011;9900;48.738;9.306;2024-02-16T08:30:19;14.60;;;5.90;;
4652;SDS011;9900;48.738;9.306;2024-02-16T08:32:48;13.57;;;6.13;;
4652;SDS011;9900;48.738;9.306;2024-02-16T08:35:17;13.93;;;6.07;;
4652;SDS011;9900;48.738;9.306;2024-02-16T08:37:47;18.53;;;6.03;;
4652;SDS011;9900;48.738;9.306;2024-02-16T08:40:16;28.77;;;16.30;;
4652;SDS011;9900;48.738;9.306;2024-02-16T08:42:45;18.00;;;5.97;;
4652;SDS011;9900;48.738;9.306;2024-02-16T08:45:14;7.77;;;5.07;;
4652;SDS011;9900;48.738;9.306;2024-02-16T08:47:46;10.90;;;4.70;;
4652;SDS011;9900;48.738;9.306;2024-02-16T08:50:19;11.43;;;4.90;;
4652;SDS011;9900;48.738;9.306;2024-02-16T08:52:48;10.40;;;5.27;;
4652;SDS011;9900;48.738;9.306;2024-02-16T08:55:17;8.93;;;3.93;;
4652;SDS011;9900;48.738;9.306;2024-02-16T08:57:46;5.57;;;3.73;;
4652;SDS011;9900;48.738;9.306;2024-02-16T09:00:15;10.27;;;4.90;;
4652;SDS011;9900;48.738;9.306;2024-02-16T09:02:44;16.83;;;4.70;;
4652;SDS011;9900;48.738;9.306;2024-02-16T09:05:15;8.33;;;4.30;;
4652;SDS011;9900;48.738;9.306;2024-02-16T09:07:44;10.77;;;4.47;;
4652;SDS011;9900;48.738;9.306;2024-02-16T09:10:14;9.33;;;4.30;;
4652;SDS011;9900;48.738;9.306;2024-02-16T09:12:43;5.70;;;4.40;;
4652;SDS011;9900;48.738;9.306;2024-02-16T09:15:12;12.00;;;4.27;;
4652;SDS011;9900;48.738;9.306;2024-02-16T09:17:41;9.20;;;4.07;;
4652;SDS011;9900;48.738;9.306;2024-02-16T09:20:10;10.07;;;4.07;;
4652;SDS011;9900;48.738;9.306;2024-02-16T09:22:41;6.43;;;3.70;;
4652;SDS011;9900;48.738;9.306;2024-02-16T09:25:14;8.37;;;3.40;;
4652;SDS011;9900;48.738;9.306;2024-02-16T09:27:43;4.73;;;3.37;;
4652;SDS011;9900;48.738;9.306;2024-02-16T09:30:13;9.77;;;4.00;;
4652;SDS011;9900;48.738;9.306;2024-02-16T09:32:42;6.20;;;4.57;;
4652;SDS011;9900;48.738;9.306;2024-02-16T09:35:11;10.67;;;4.27;;
4652;SDS011;9900;48.738;9.306;2024-02-16T09:37:42;5.10;;;3.40;;
4652;SDS011;9900;48.738;9.306;2024-02-16T09:40:11;7.00;;;3.77;;
4652;SDS011;9900;48.738;9.306;2024-02-16T09:42:41;6.93;;;3.63;;
4652;SDS011;9900;48.738;9.306;2024-02-16T09:45:10;6.07;;;3.60;;
4652;SDS011;9900;48.738;9.306;2024-02-16T09:47:41;8.37;;;3.97;;
4652;SDS011;9900;48.738;9.306;2024-02-16T09:50:27;4.43;;;2.90;;
4652;SDS011;9900;48.738;9.306;2024-02-16T09:52:57;8.50;;;4.83;;
4652;SDS011;9900;48.738;9.306;2024-02-16T09:55:29;5.90;;;3.87;;
4652;SDS011;9900;48.738;9.306;2024-02-16T09:58:00;8.00;;;4.17;;
4652;SDS011;9900;48.738;9.306;2024-02-16T10:00:32;6.97;;;4.57;;
4652;SDS011;9900;48.738;9.306;2024-02-16T10:03:01;8.93;;;5.60;;
4652;SDS011;9900;48.738;9.306;2024-02-16T10:05:32;8.20;;;4.87;;
4652;SDS011;9900;48.738;9.306;2024-02-16T10:08:12;5.87;;;3.33;;
4652;SDS011;9900;48.738;9.306;2024-02-16T10:10:41;7.53;;;4.17;;
4652;SDS011;9900;48.738;9.306;2024-02-16T10:13:10;10.60;;;4.03;;
4652;SDS011;9900;48.738;9.306;2024-02-16T10:15:39;6.60;;;4.40;;
4652;SDS011;9900;48.738;9.306;2024-02-16T10:18:08;6.00;;;3.90;;
4652;SDS011;9900;48.738;9.306;2024-02-16T10:20:38;4.23;;;3.60;;
4652;SDS011;9900;48.738;9.306;2024-02-16T10:23:07;12.10;;;4.10;;
4652;SDS011;9900;48.738;9.306;2024-02-16T10:25:38;5.20;;;3.27;;
4652;SDS011;9900;48.738;9.306;2024-02-16T10:28:08;5.07;;;3.30;;
4652;SDS011;9900;48.738;9.306;2024-02-16T10:30:40;6.03;;;3.80;;
4652;SDS011;9900;48.738;9.306;2024-02-16T10:33:11;7.00;;;3.80;;
4652;SDS011;9900;48.738;9.306;2024-02-16T10:35:41;6.20;;;3.83;;
4652;SDS011;9900;48.738;9.306;2024-02-16T10:38:10;9.63;;;3.90;;
4652;SDS011;9900;48.738;9.306;2024-02-16T10:40:42;6.17;;;3.90;;
4652;SDS011;9900;48.738;9.306;2024-02-16T10:43:12;6.40;;;3.23;;
4652;SDS011;9900;48.738;9.306;2024-02-16T10:45:41;6.33;;;2.70;;
4652;SDS011;9900;48.738;9.306;2024-02-16T10:48:11;7.13;;;4.30;;
4652;SDS011;9900;48.738;9.306;2024-02-16T10:50:43;4.33;;;3.60;;
4652;SDS011;9900;48.738;9.306;2024-02-16T10:53:13;11.50;;;3.23;;
4652;SDS011;9900;48.738;9.306;2024-02-16T10:55:45;7.20;;;5.33;;
4652;SDS011;9900;48.738;9.306;2024-02-16T10:58:14;7.30;;;3.80;;
4652;SDS011;9900;48.738;9.306;2024-02-16T11:00:51;8.20;;;3.80;;
4652;SDS011;9900;48.738;9.306;2024-02-16T11:03:22;7.37;;;3.20;;
4652;SDS011;9900;48.738;9.306;2024-02-16T11:05:52;7.00;;;3.70;;
4652;SDS011;9900;48.738;9.306;2024-02-16T11:08:23;7.47;;;2.87;;
4652;SDS011;9900;48.738;9.306;2024-02-16T11:10:55;6.20;;;2.90;;
4652;SDS011;9900;48.738;9.306;2024-02-16T11:13:25;5.50;;;2.83;;
4652;SDS011;9900;48.738;9.306;2024-02-16T11:15:58;10.70;;;3.20;;
4652;SDS011;9900;48.738;9.306;2024-02-16T11:18:28;5.80;;;2.87;;
4652;SDS011;9900;48.738;9.306;2024-02-16T11:21:01;6.47;;;3.10;;
4652;SDS011;9900;48.738;9.306;2024-02-16T11:23:31;5.93;;;3.27;;
4652;SDS011;9900;48.738;9.306;2024-02-16T11:26:01;3.63;;;2.70;;
4652;SDS011;9900;48.738;9.306;2024-02-16T11:28:31;5.10;;;2.53;;
4652;SDS011;9900;48.738;9.306;2024-02-16T11:31:01;4.43;;;2.60;;
4652;SDS011;9900;48.738;9.306;2024-02-16T11:33:30;12.87;;;4.53;;
4652;SDS011;9900;48.738;9.306;2024-02-16T11:36:00;4.60;;;2.93;;
4652;SDS011;9900;48.738;9.306;2024-02-16T11:38:30;5.50;;;2.63;;
4652;SDS011;9900;48.738;9.306;2024-02-16T11:41:01;5.30;;;2.53;;
4652;SDS011;9900;48.738;9.306;2024-02-16T11:43:33;2.93;;;2.10;;
4652;SDS011;9900;48.738;9.306;2024-02-16T11:46:11;5.80;;;2.40;;
4652;SDS011;9900;48.738;9.306;2024-02-16T11:48:40;8.03;;;2.53;;
4652;SDS011;9900;48.738;9.306;2024-02-16T11:51:10;3.50;;;2.60;;
4652;SDS011;9900;48.738;9.306;2024-02-16T11:53:39;9.17;;;3.07;;
4652;SDS011;9900;48.738;9.306;2024-02-16T11:56:09;14.83;;;6.00;;
4652;SDS011;9900;48.738;9.306;2024-02-16T11:58:38;9.87;;;4.63;;
4652;SDS011;9900;48.738;9.306;2024-02-16T12:01:10;9.00;;;2.53;;
4652;SDS011;9900;48.738;9.306;2024-02-16T12:03:40;3.73;;;2.53;;
4652;SDS011;9900;48.738;9.306;2024-02-16T12:06:18;4.00;;;2.40;;
4652;SDS011;9900;48.738;9.306;2024-02-16T12:08:49;6.70;;;2.50;;
4652;SDS011;9900;48.738;9.306;2024-02-16T12:11:23;2.50;;;2.20;;
4652;SDS011;9900;48.738;9.306;2024-02-16T12:13:52;5.37;;;2.63;;
4652;SDS011;9900;48.738;9.306;2024-02-16T12:16:21;2.13;;;1.50;;
4652;SDS011;9900;48.738;9.306;2024-02-16T12:18:50;3.90;;;1.90;;
4652;SDS011;9900;48.738;9.306;2024-02-16T12:21:19;6.60;;;1.97;;
4652;SDS011;9900;48.738;9.306;2024-02-16T12:23:48;4.40;;;2.17;;
4652;SDS011;9900;48.738;9.306;2024-02-16T12:26:17;4.30;;;1.63;;
4652;SDS011;9900;48.738;9.306;2024-02-16T12:28:47;3.30;;;1.93;;
4652;SDS011;9900;48.738;9.306;2024-02-16T12:31:20;2.30;;;1.77;;
4652;SDS011;9900;48.738;9.306;2024-02-16T12:33:49;4.50;;;1.93;;
4652;SDS011;9900;48.738;9.306;2024-02-16T12:36:18;9.60;;;5.47;;
4652;SDS011;9900;48.738;9.306;2024-02-16T12:38:50;5.13;;;3.00;;
4652;SDS011;9900;48.738;9.306;2024-02-16T12:41:19;6.23;;;2.07;;
4652;SDS011;9900;48.738;9.306;2024-02-16T12:43:50;2.90;;;1.40;;
4652;SDS011;9900;48.738;9.306;2024-02-16T12:46:19;3.70;;;1.90;;
4652;SDS011;9900;48.738;9.306;2024-02-16T12:48:48;6.80;;;2.10;;
4652;SDS011;9900;48.738;9.306;2024-02-16T12:51:18;4.60;;;1.60;;
4652;SDS011;9900;48.738;9.306;2024-02-16T12:53:47;3.23;;;1.50;;
4652;SDS011;9900;48.738;9.306;2024-02-16T12:56:16;4.13;;;1.63;;
4652;SDS011;9900;48.738;9.306;2024-02-16T12:58:45;6.10;;;1.80;;
4652;SDS011;9900;48.738;9.306;2024-02-16T13:01:16;3.13;;;1.60;;
4652;SDS011;9900;48.738;9.306;2024-02-16T13:03:53;2.53;;;1.50;;
4652;SDS011;9900;48.738;9.306;2024-02-16T13:06:23;2.90;;;1.67;;
4652;SDS011;9900;48.738;9.306;2024-02-16T13:08:55;4.97;;;2.10;;
4652;SDS011;9900;48.738;9.306;2024-02-16T13:11:24;6.87;;;2.10;;
4652;SDS011;9900;48.738;9.306;2024-02-16T13:13:54;8.23;;;2.17;;
4652;SDS011;9900;48.738;9.306;2024-02-16T13:16:24;5.63;;;2.30;;
4652;SDS011;9900;48.738;9.306;2024-02-16T13:18:54;6.87;;;2.07;;
4652;SDS011;9900;48.738;9.306;2024-02-16T13:21:23;2.00;;;1.80;;
4652;SDS011;9900;48.738;9.306;2024-02-16T13:23:52;2.80;;;1.33;;
4652;SDS011;9900;48.738;9.306;2024-02-16T13:26:21;3.27;;;2.13;;
4652;SDS011;9900;48.738;9.306;2024-02-16T13:28:50;3.03;;;1.60;;
4652;SDS011;9900;48.738;9.306;2024-02-16T13:31:21;6.83;;;1.80;;
4652;SDS011;9900;48.738;9.306;2024-02-16T13:33:52;2.20;;;1.80;;
4652;SDS011;9900;48.738;9.306;2024-02-16T13:36:22;2.80;;;1.57;;
4652;SDS011;9900;48.738;9.306;2024-02-16T13:38:51;2.90;;;1.70;;
4652;SDS011;9900;48.738;9.306;2024-02-16T13:41:20;3.17;;;2.03;;
4652;SDS011;9900;48.738;9.306;2024-02-16T13:43:49;4.90;;;2.43;;
4652;SDS011;9900;48.738;9.306;2024-02-16T13:46:19;4.47;;;2.17;;
4652;SDS011;9900;48.738;9.306;2024-02-16T13:48:49;5.47;;;2.80;;
4652;SDS011;9900;48.738;9.306;2024-02-16T13:51:20;4.40;;;2.90;;
4652;SDS011;9900;48.738;9.306;2024-02-16T13:53:49;4.63;;;2.53;;
4652;SDS011;9900;48.738;9.306;2024-02-16T13:56:19;4.40;;;3.00;;
4652;SDS011;9900;48.738;9.306;2024-02-16T13:58:48;3.20;;;2.33;;
4652;SDS011;9900;48.738;9.306;2024-02-16T14:01:17;5.90;;;2.17;;
4652;SDS011;9900;48.738;9.306;2024-02-16T14:03:46;3.40;;;2.40;;
4652;SDS011;9900;48.738;9.306;2024-02-16T14:06:15;4.20;;;2.30;;
4652;SDS011;9900;48.738;9.306;2024-02-16T14:08:46;3.93;;;2.50;;
4652;SDS011;9900;48.738;9.306;2024-02-16T14:11:16;3.93;;;2.83;;
4652;SDS011;9900;48.738;9.306;2024-02-16T14:13:45;6.53;;;2.17;;
4652;SDS011;9900;48.738;9.306;2024-02-16T14:16:14;8.87;;;4.10;;
4652;SDS011;9900;48.738;9.306;2024-02-16T14:18:43;8.30;;;2.97;;
4652;SDS011;9900;48.738;9.306;2024-02-16T14:21:12;5.60;;;2.70;;
4652;SDS011;9900;48.738;9.306;2024-02-16T14:23:42;9.77;;;2.80;;
4652;SDS011;9900;48.738;9.306;2024-02-16T14:26:13;4.10;;;2.40;;
4652;SDS011;9900;48.738;9.306;2024-02-16T14:28:42;8.50;;;2.20;;
4652;SDS011;9900;48.738;9.306;2024-02-16T14:31:12;5.63;;;2.27;;
4652;SDS011;9900;48.738;9.306;2024-02-16T14:33:41;4.53;;;2.30;;
4652;SDS011;9900;48.738;9.306;2024-02-16T14:36:11;6.03;;;2.93;;
4652;SDS011;9900;48.738;9.306;2024-02-16T14:38:40;6.33;;;2.87;;
4652;SDS011;9900;48.738;9.306;2024-02-16T14:41:09;4.90;;;2.63;;
4652;SDS011;9900;48.738;9.306;2024-02-16T14:43:40;6.67;;;2.70;;
4652;SDS011;9900;48.738;9.306;2024-02-16T14:46:10;6.97;;;2.30;;
4652;SDS011;9900;48.738;9.306;2024-02-16T14:48:39;3.13;;;2.10;;
4652;SDS011;9900;48.738;9.306;2024-02-16T14:51:08;5.97;;;2.80;;
4652;SDS011;9900;48.738;9.306;2024-02-16T14:53:37;12.73;;;6.90;;
4652;SDS011;9900;48.738;9.306;2024-02-16T14:56:06;12.30;;;7.47;;
4652;SDS011;9900;48.738;9.306;2024-02-16T14:58:36;4.90;;;3.40;;
4652;SDS011;9900;48.738;9.306;2024-02-16T15:01:07;7.13;;;3.07;;
4652;SDS011;9900;48.738;9.306;2024-02-16T15:03:37;7.00;;;3.13;;
4652;SDS011;9900;48.738;9.306;2024-02-16T15:06:06;5.23;;;2.70;;
4652;SDS011;9900;48.738;9.306;2024-02-16T15:08:35;7.50;;;3.00;;
4652;SDS011;9900;48.738;9.306;2024-02-16T15:11:04;5.43;;;2.93;;
4652;SDS011;9900;48.738;9.306;2024-02-16T15:13:33;5.47;;;2.70;;
4652;SDS011;9900;48.738;9.306;2024-02-16T15:16:06;4.70;;;2.27;;
4652;SDS011;9900;48.738;9.306;2024-02-16T15:18:36;8.00;;;2.70;;
4652;SDS011;9900;48.738;9.306;2024-02-16T15:21:05;10.27;;;3.30;;
4652;SDS011;9900;48.738;9.306;2024-02-16T15:23:35;6.17;;;2.40;;
4652;SDS011;9900;48.738;9.306;2024-02-16T15:26:04;7.63;;;3.13;;